createdAt,value
2019-05-02T00:00:21.170Z,7.09
2019-05-02T00:01:21.160Z,7.13
2019-05-02T00:02:24.075Z,7.19
2019-05-02T00:03:22.135Z,7.20
2019-05-02T00:04:21.349Z,7.17
2019-05-02T00:05:21.115Z,7.13
2019-05-02T00:06:21.102Z,7.23
2019-05-02T00:07:21.785Z,7.27
2019-05-02T00:08:21.078Z,7.24
2019-05-02T00:09:21.087Z,7.17
2019-05-02T00:10:24.814Z,7.24
2019-05-02T00:11:21.044Z,7.22
2019-05-02T00:12:21.036Z,7.15
2019-05-02T00:13:21.023Z,7.13
2019-05-02T00:14:21.051Z,7.16
2019-05-02T00:15:20.999Z,7.24
2019-05-02T00:16:20.990Z,7.20
2019-05-02T00:17:25.575Z,7.19
2019-05-02T00:18:21.963Z,7.26
2019-05-02T00:19:20.956Z,7.13
2019-05-02T00:20:25.439Z,7.17
2019-05-02T00:21:20.934Z,7.19
2019-05-02T00:22:20.926Z,7.19
2019-05-02T00:23:23.067Z,7.12
2019-05-02T00:24:21.896Z,7.08
2019-05-02T00:25:20.909Z,7.13
2019-05-02T00:26:24.599Z,7.04
2019-05-02T00:27:20.867Z,7.05
2019-05-02T00:28:20.851Z,7.02
2019-05-02T00:29:23.718Z,7.02
2019-05-02T00:30:20.827Z,6.99
2019-05-02T00:31:20.835Z,7.01
2019-05-02T00:32:22.497Z,7.05
2019-05-02T00:33:20.796Z,7.05
2019-05-02T00:34:20.781Z,7.13
2019-05-02T00:35:20.772Z,7.08
2019-05-02T00:36:20.779Z,7.02
2019-05-02T00:37:24.701Z,7.04
2019-05-02T00:38:21.736Z,6.97
2019-05-02T00:39:20.728Z,6.97
2019-05-02T00:40:25.632Z,6.94
2019-05-02T00:41:21.725Z,6.87
2019-05-02T00:42:22.435Z,6.86
2019-05-02T00:43:20.678Z,6.98
2019-05-02T00:44:20.667Z,6.89
2019-05-02T00:45:23.859Z,6.89
2019-05-02T00:46:20.662Z,6.86
2019-05-02T00:47:20.637Z,6.87
2019-05-02T00:48:23.217Z,6.83
2019-05-02T00:49:20.610Z,6.89
2019-05-02T00:50:20.602Z,6.86
2019-05-02T00:51:21.919Z,6.76
2019-05-02T00:52:21.575Z,6.80
2019-05-02T00:53:20.563Z,6.76
2019-05-02T00:54:24.260Z,6.81
2019-05-02T00:55:20.543Z,6.83
2019-05-02T00:56:20.568Z,6.65
2019-05-02T00:57:21.787Z,6.72
2019-05-02T00:58:20.514Z,6.71
2019-05-02T00:59:20.494Z,6.69
2019-05-02T01:00:20.486Z,6.63
2019-05-02T01:01:24.265Z,6.63
2019-05-02T01:02:21.478Z,6.61
2019-05-02T01:03:20.450Z,6.71
2019-05-02T01:04:23.272Z,6.65
2019-05-02T01:05:21.427Z,6.63
2019-05-02T01:06:20.416Z,6.66
2019-05-02T01:07:25.329Z,6.53
2019-05-02T01:08:21.391Z,6.63
2019-05-02T01:09:20.384Z,6.66
2019-05-02T01:10:21.200Z,6.61
2019-05-02T01:11:20.359Z,6.58
2019-05-02T01:12:26.716Z,6.63
2019-05-02T01:13:21.335Z,6.66
2019-05-02T01:14:20.323Z,6.61
2019-05-02T01:15:20.314Z,6.56
2019-05-02T01:16:20.420Z,6.66
2019-05-02T01:17:20.306Z,6.53
2019-05-02T01:18:20.282Z,6.51
2019-05-02T01:19:20.270Z,6.50
2019-05-02T01:20:22.289Z,6.47
2019-05-02T01:21:21.245Z,6.53
2019-05-02T01:22:20.253Z,6.53
2019-05-02T01:23:22.997Z,6.44
2019-05-02T01:24:20.209Z,6.48
2019-05-02T01:25:20.198Z,6.46
2019-05-02T01:26:24.105Z,6.51
2019-05-02T01:27:21.195Z,6.46
2019-05-02T01:28:20.165Z,6.44
2019-05-02T01:29:20.215Z,6.43
2019-05-02T01:30:20.142Z,6.50
2019-05-02T01:31:20.321Z,6.41
2019-05-02T01:32:20.142Z,6.35
2019-05-02T01:33:20.106Z,6.22
2019-05-02T01:34:20.095Z,6.14
2019-05-02T01:35:20.083Z,6.14
2019-05-02T01:36:20.072Z,6.22
2019-05-02T01:37:21.121Z,6.21
2019-05-02T01:38:20.070Z,6.26
2019-05-02T01:39:20.038Z,6.33
2019-05-02T01:40:20.029Z,6.38
2019-05-02T01:41:23.898Z,6.33
2019-05-02T01:42:21.002Z,6.32
2019-05-02T01:43:23.906Z,6.30
2019-05-02T01:44:20.981Z,6.36
2019-05-02T01:45:19.969Z,6.43
2019-05-02T01:46:22.342Z,6.41
2019-05-02T01:47:19.947Z,6.26
2019-05-02T01:48:19.957Z,6.33
2019-05-02T01:49:21.726Z,6.32
2019-05-02T01:50:19.912Z,6.30
2019-05-02T01:51:19.899Z,6.22
2019-05-02T01:52:23.663Z,6.22
2019-05-02T01:53:19.878Z,6.26
2019-05-02T01:54:19.885Z,6.21
2019-05-02T01:55:21.170Z,6.32
2019-05-02T01:56:19.844Z,6.19
2019-05-02T01:57:19.831Z,6.19
2019-05-02T01:58:20.703Z,6.18
2019-05-02T01:59:19.828Z,6.11
2019-05-02T02:00:19.797Z,6.30
2019-05-02T02:01:21.541Z,6.28
2019-05-02T02:02:19.773Z,6.21
2019-05-02T02:03:19.760Z,6.22
2019-05-02T02:04:20.989Z,6.14
2019-05-02T02:05:19.738Z,6.11
2019-05-02T02:06:19.727Z,6.16
2019-05-02T02:07:20.020Z,6.19
2019-05-02T02:08:19.705Z,6.28
2019-05-02T02:09:19.715Z,6.19
2019-05-02T02:10:21.001Z,6.03
2019-05-02T02:11:19.669Z,6.14
2019-05-02T02:12:19.658Z,6.09
2019-05-02T02:13:19.649Z,6.14
2019-05-02T02:14:19.655Z,6.18
2019-05-02T02:15:19.626Z,6.07
2019-05-02T02:16:19.614Z,6.07
2019-05-02T02:17:19.601Z,6.11
2019-05-02T02:18:22.122Z,6.04
2019-05-02T02:19:20.598Z,6.00
2019-05-02T02:20:19.565Z,6.00
2019-05-02T02:21:20.180Z,6.01
2019-05-02T02:22:20.549Z,6.01
2019-05-02T02:23:19.534Z,5.92
2019-05-02T02:24:21.055Z,6.04
2019-05-02T02:25:20.512Z,6.06
2019-05-02T02:26:19.497Z,6.00
2019-05-02T02:27:19.844Z,6.07
2019-05-02T02:28:19.476Z,6.04
2019-05-02T02:29:19.485Z,6.00
2019-05-02T02:30:24.613Z,5.96
2019-05-02T02:31:20.450Z,5.98
2019-05-02T02:32:27.030Z,6.07
2019-05-02T02:33:20.417Z,5.92
2019-05-02T02:34:21.572Z,5.98
2019-05-02T02:35:20.396Z,5.93
2019-05-02T02:36:30.052Z,5.98
2019-05-02T02:37:20.372Z,5.89
2019-05-02T02:38:19.362Z,5.89
2019-05-02T02:39:19.362Z,5.92
2019-05-02T02:40:19.354Z,5.83
2019-05-02T02:41:19.326Z,5.88
2019-05-02T02:42:24.885Z,5.92
2019-05-02T02:43:33.426Z,5.96
2019-05-02T02:44:20.296Z,5.91
2019-05-02T02:45:20.455Z,5.88
2019-05-02T02:46:19.281Z,5.93
2019-05-02T02:47:21.089Z,5.88
2019-05-02T02:48:19.245Z,5.91
2019-05-02T02:49:21.703Z,5.77
2019-05-02T02:50:19.247Z,5.83
2019-05-02T02:51:24.063Z,5.81
2019-05-02T02:52:20.199Z,5.81
2019-05-02T02:53:24.088Z,5.74
2019-05-02T02:54:20.176Z,5.77
2019-05-02T02:55:21.943Z,5.74
2019-05-02T02:56:20.156Z,5.78
2019-05-02T02:57:25.665Z,5.85
2019-05-02T02:58:20.159Z,5.74
2019-05-02T02:59:25.767Z,5.81
2019-05-02T03:00:20.130Z,5.73
2019-05-02T03:01:27.700Z,5.64
2019-05-02T03:02:20.084Z,5.73
2019-05-02T03:03:20.826Z,5.64
2019-05-02T03:04:20.063Z,5.63
2019-05-02T03:05:26.212Z,5.66
2019-05-02T03:06:20.060Z,5.70
2019-05-02T03:07:25.978Z,5.78
2019-05-02T03:08:20.036Z,5.73
2019-05-02T03:09:20.533Z,5.86
2019-05-02T03:10:19.996Z,5.85
2019-05-02T03:11:23.368Z,5.89
2019-05-02T03:12:19.972Z,5.93
2019-05-02T03:13:21.785Z,5.95
2019-05-02T03:14:18.951Z,6.04
2019-05-02T03:15:20.996Z,5.93
2019-05-02T03:16:19.946Z,6.09
2019-05-02T03:17:25.266Z,6.14
2019-05-02T03:18:19.903Z,6.13
2019-05-02T03:19:21.163Z,6.14
2019-05-02T03:20:18.880Z,6.25
2019-05-02T03:21:20.922Z,6.25
2019-05-02T03:22:18.874Z,6.33
2019-05-02T03:23:22.157Z,6.36
2019-05-02T03:24:19.833Z,6.38
2019-05-02T03:25:26.999Z,6.30
2019-05-02T03:26:19.810Z,6.44
2019-05-02T03:27:18.882Z,6.44
2019-05-02T03:28:20.957Z,6.47
2019-05-02T03:29:18.777Z,6.36
2019-05-02T03:30:30.814Z,6.48
2019-05-02T03:31:28.198Z,6.58
2019-05-02T03:32:31.670Z,6.53
2019-05-02T03:33:19.729Z,6.58
2019-05-02T03:34:18.741Z,6.54
2019-05-02T03:35:19.746Z,6.56
2019-05-02T03:36:29.316Z,6.59
2019-05-02T03:37:19.705Z,6.68
2019-05-02T03:38:31.416Z,6.58
2019-05-02T03:39:19.660Z,6.72
2019-05-02T03:40:18.649Z,6.59
2019-05-02T03:41:20.835Z,6.76
2019-05-02T03:42:18.628Z,6.72
2019-05-02T03:43:25.141Z,6.76
2019-05-02T03:44:26.115Z,6.69
2019-05-02T03:45:19.592Z,6.77
2019-05-02T03:46:20.621Z,6.76
2019-05-02T03:47:18.575Z,6.72
2019-05-02T03:48:25.916Z,6.80
2019-05-02T03:49:19.547Z,6.73
2019-05-02T03:50:30.713Z,6.91
2019-05-02T03:51:24.763Z,6.83
2019-05-02T03:52:19.517Z,6.84
2019-05-02T03:53:25.336Z,6.89
2019-05-02T03:54:20.165Z,6.86
2019-05-02T03:55:23.963Z,6.94
2019-05-02T03:57:33.583Z,6.87
2019-05-02T03:58:29.280Z,6.84
2019-05-02T03:59:37.518Z,6.87
2019-05-02T04:00:29.258Z,6.84
2019-05-02T04:01:28.250Z,6.84
2019-05-02T04:02:28.240Z,6.99
2019-05-02T04:03:34.275Z,6.89
2019-05-02T04:04:29.216Z,6.97
2019-05-02T04:05:33.671Z,6.95
2019-05-02T04:06:29.191Z,6.94
2019-05-02T04:07:28.180Z,6.86
2019-05-02T04:08:28.192Z,6.99
2019-05-02T04:09:32.198Z,6.91
2019-05-02T04:10:29.145Z,6.91
2019-05-02T04:11:37.927Z,6.98
2019-05-02T04:12:32.541Z,7.08
2019-05-02T04:13:30.076Z,7.19
2019-05-02T04:14:38.044Z,7.16
2019-05-02T04:16:29.084Z,7.12
2019-05-02T04:17:28.892Z,7.12
2019-05-02T04:18:29.089Z,7.16
2019-05-02T04:19:28.841Z,7.15
2019-05-02T04:20:29.031Z,7.08
2019-05-02T04:21:28.024Z,7.04
2019-05-02T04:22:28.009Z,7.05
2019-05-02T04:23:29.854Z,7.19
2019-05-02T04:24:28.038Z,7.19
2019-05-02T04:25:33.837Z,7.15
2019-05-02T04:26:28.974Z,7.27
2019-05-02T04:27:33.869Z,7.23
2019-05-02T04:28:28.939Z,7.22
2019-05-02T04:29:31.190Z,7.22
2019-05-02T04:30:27.917Z,7.17
2019-05-02T04:31:31.605Z,7.20
2019-05-02T04:32:28.902Z,7.23
2019-05-02T04:33:29.049Z,7.20
2019-05-02T04:34:28.914Z,7.20
2019-05-02T04:35:28.666Z,7.19
2019-05-02T04:36:28.852Z,7.19
2019-05-02T04:37:27.836Z,7.27
2019-05-02T04:38:41.727Z,7.16
2019-05-02T04:39:28.826Z,7.29
2019-05-02T04:40:28.429Z,7.27
2019-05-02T04:41:29.037Z,7.29
2019-05-02T04:42:29.410Z,7.19
2019-05-02T04:43:28.682Z,7.32
2019-05-02T04:44:29.800Z,7.31
2019-05-02T04:45:38.429Z,7.41
2019-05-02T04:46:31.069Z,7.31
2019-05-02T04:47:29.015Z,7.38
2019-05-02T04:48:28.462Z,7.40
2019-05-02T04:49:33.538Z,7.55
2019-05-02T04:50:29.469Z,7.49
2019-05-02T04:51:31.790Z,7.47
2019-05-02T04:52:28.721Z,7.50
2019-05-02T04:53:36.925Z,7.58
2019-05-02T04:54:32.193Z,7.58
2019-05-02T04:55:32.318Z,7.60
2019-05-02T04:56:28.616Z,7.66
2019-05-02T04:57:36.237Z,7.74
2019-05-02T04:58:33.427Z,7.66
2019-05-02T04:59:32.705Z,7.72
2019-05-02T05:00:28.682Z,7.69
2019-05-02T05:01:33.052Z,7.59
2019-05-02T05:02:34.737Z,7.72
2019-05-02T05:03:28.587Z,7.77
2019-05-02T05:04:27.690Z,7.75
2019-05-02T05:05:30.994Z,7.74
2019-05-02T05:06:27.705Z,7.77
2019-05-02T05:07:31.122Z,7.89
2019-05-02T05:08:31.936Z,7.85
2019-05-02T05:09:27.920Z,7.92
2019-05-02T05:10:27.759Z,7.94
2019-05-02T05:11:27.533Z,8.00
2019-05-02T05:12:27.795Z,8.04
2019-05-02T05:13:29.033Z,8.11
2019-05-02T05:14:31.418Z,8.12
2019-05-02T05:15:39.830Z,8.22
2019-05-02T05:16:28.694Z,8.15
2019-05-02T05:17:32.482Z,8.15
2019-05-02T05:18:28.359Z,8.32
2019-05-02T05:19:31.001Z,8.17
2019-05-02T05:20:28.356Z,8.18
2019-05-02T05:21:28.578Z,8.32
2019-05-02T05:22:28.363Z,8.29
2019-05-02T05:23:28.077Z,8.40
2019-05-02T05:24:27.951Z,8.50
2019-05-02T05:25:27.838Z,8.54
2019-05-02T05:26:27.659Z,8.69
2019-05-02T05:27:27.545Z,8.66
2019-05-02T05:28:27.351Z,8.66
2019-05-02T05:29:29.022Z,8.71
2019-05-02T05:30:27.775Z,8.88
2019-05-02T05:31:29.128Z,8.86
2019-05-02T05:32:28.204Z,8.90
2019-05-02T05:33:28.345Z,8.96
2019-05-02T05:34:28.499Z,9.09
2019-05-02T05:35:28.238Z,9.10
2019-05-02T05:36:32.649Z,9.09
2019-05-02T05:37:29.538Z,9.12
2019-05-02T05:38:28.598Z,9.12
2019-05-02T05:39:28.214Z,9.23
2019-05-02T05:40:30.393Z,9.23
2019-05-02T05:41:27.832Z,9.27
2019-05-02T05:42:30.140Z,9.28
2019-05-02T05:43:28.068Z,9.32
2019-05-02T05:44:30.607Z,9.46
2019-05-02T05:45:28.045Z,9.45
2019-05-02T05:46:27.983Z,9.48
2019-05-02T05:47:27.419Z,9.63
2019-05-02T05:48:27.437Z,9.53
2019-05-02T05:49:28.326Z,9.49
2019-05-02T05:50:27.609Z,9.61
2019-05-02T05:51:27.723Z,9.63
2019-05-02T05:52:27.231Z,9.64
2019-05-02T05:53:28.165Z,9.66
2019-05-02T05:54:28.282Z,9.78
2019-05-02T05:55:28.466Z,9.70
2019-05-02T05:56:27.957Z,9.82
2019-05-02T05:57:27.967Z,9.78
2019-05-02T05:58:28.432Z,9.81
2019-05-02T05:59:30.737Z,9.64
2019-05-02T06:00:27.975Z,9.75
2019-05-02T06:01:34.406Z,9.71
2019-05-02T06:02:28.398Z,9.79
2019-05-02T06:03:27.831Z,9.79
2019-05-02T06:04:32.606Z,9.82
2019-05-02T06:05:27.820Z,9.81
2019-05-02T06:06:27.495Z,9.91
2019-05-02T06:07:27.775Z,9.93
2019-05-02T06:08:26.810Z,9.99
2019-05-02T06:09:31.214Z,9.85
2019-05-02T06:10:27.773Z,10.00
2019-05-02T06:11:26.753Z,10.00
2019-05-02T06:12:30.066Z,10.22
2019-05-02T06:13:27.747Z,10.14
2019-05-02T06:14:26.717Z,10.21
2019-05-02T06:15:26.705Z,10.24
2019-05-02T06:16:26.721Z,10.19
2019-05-02T06:17:28.512Z,10.28
2019-05-02T06:18:28.341Z,10.28
2019-05-02T06:19:26.669Z,10.37
2019-05-02T06:20:30.540Z,10.33
2019-05-02T06:21:27.636Z,10.28
2019-05-02T06:22:26.628Z,10.26
2019-05-02T06:23:30.947Z,10.34
2019-05-02T06:24:26.608Z,10.36
2019-05-02T06:25:34.020Z,10.39
2019-05-02T06:26:27.579Z,10.40
2019-05-02T06:27:30.305Z,10.44
2019-05-02T06:28:26.559Z,10.58
2019-05-02T06:29:26.567Z,10.42
2019-05-02T06:30:27.100Z,10.66
2019-05-02T06:31:26.522Z,10.56
2019-05-02T06:32:26.517Z,10.77
2019-05-02T06:33:30.466Z,10.73
2019-05-02T06:34:27.506Z,10.83
2019-05-02T06:35:26.480Z,10.78
2019-05-02T06:36:26.471Z,10.76
2019-05-02T06:37:26.454Z,10.71
2019-05-02T06:38:26.441Z,10.68
2019-05-02T06:39:27.198Z,10.83
2019-05-02T06:40:27.417Z,10.84
2019-05-02T06:41:26.407Z,10.89
2019-05-02T06:42:27.685Z,10.83
2019-05-02T06:43:27.383Z,10.94
2019-05-02T06:44:26.390Z,11.02
2019-05-02T06:45:26.358Z,10.99
2019-05-02T06:46:27.838Z,10.96
2019-05-02T06:47:26.338Z,11.07
2019-05-02T06:48:26.324Z,10.86
2019-05-02T06:49:26.330Z,10.86
2019-05-02T06:50:26.304Z,10.94
2019-05-02T06:51:26.291Z,11.01
2019-05-02T06:52:27.170Z,11.10
2019-05-02T06:53:27.262Z,11.14
2019-05-02T06:54:26.272Z,11.10
2019-05-02T06:55:28.184Z,11.13
2019-05-02T06:56:27.231Z,11.19
2019-05-02T06:57:26.251Z,11.14
2019-05-02T06:58:26.206Z,11.07
2019-05-02T06:59:26.239Z,11.09
2019-05-02T07:00:35.428Z,11.20
2019-05-02T07:01:27.183Z,11.19
2019-05-02T07:02:28.219Z,11.21
2019-05-02T07:03:27.706Z,11.20
2019-05-02T07:04:26.135Z,11.11
2019-05-02T07:05:27.365Z,11.17
2019-05-02T07:06:26.205Z,11.10
2019-05-02T07:07:31.309Z,11.21
2019-05-02T07:08:27.089Z,11.16
2019-05-02T07:09:39.509Z,10.98
2019-05-02T07:10:29.764Z,10.81
2019-05-02T07:11:27.054Z,10.74
2019-05-02T07:12:26.039Z,10.73
2019-05-02T07:13:26.028Z,10.74
2019-05-02T07:14:26.017Z,10.68
2019-05-02T07:15:26.193Z,10.70
2019-05-02T07:16:37.684Z,10.77
2019-05-02T07:17:32.261Z,10.55
2019-05-02T07:18:26.969Z,10.56
2019-05-02T07:19:27.556Z,10.59
2019-05-02T07:20:25.994Z,10.59
2019-05-02T07:21:25.936Z,10.53
2019-05-02T07:22:25.945Z,10.65
2019-05-02T07:23:25.911Z,10.71
2019-05-02T07:24:30.683Z,10.74
2019-05-02T07:25:26.925Z,10.74
2019-05-02T07:26:25.877Z,10.74
2019-05-02T07:27:28.195Z,10.77
2019-05-02T07:28:26.855Z,10.94
2019-05-02T07:29:25.864Z,11.07
2019-05-02T07:30:30.067Z,11.17
2019-05-02T07:31:26.836Z,11.10
2019-05-02T07:32:26.771Z,11.10
2019-05-02T07:33:25.794Z,11.09
2019-05-02T07:34:25.781Z,11.20
2019-05-02T07:35:25.923Z,11.19
2019-05-02T07:36:25.782Z,11.16
2019-05-02T07:37:25.746Z,11.13
2019-05-02T07:38:27.511Z,11.19
2019-05-02T07:39:25.726Z,11.25
2019-05-02T07:40:25.711Z,11.29
2019-05-02T07:41:29.003Z,11.27
2019-05-02T07:42:25.687Z,11.32
2019-05-02T07:43:25.677Z,11.43
2019-05-02T07:44:27.263Z,11.49
2019-05-02T07:45:26.653Z,11.43
2019-05-02T07:46:25.658Z,11.24
2019-05-02T07:47:28.612Z,11.39
2019-05-02T07:48:25.618Z,11.39
2019-05-02T07:49:26.785Z,11.32
2019-05-02T07:50:26.591Z,11.34
2019-05-02T07:51:25.605Z,11.47
2019-05-02T07:52:28.887Z,11.70
2019-05-02T07:53:25.558Z,11.82
2019-05-02T07:54:26.831Z,11.77
2019-05-02T07:55:25.538Z,11.83
2019-05-02T07:56:25.521Z,11.93
2019-05-02T07:57:30.329Z,11.94
2019-05-02T07:58:26.496Z,11.97
2019-05-02T07:59:25.488Z,11.72
2019-05-02T08:00:25.477Z,11.75
2019-05-02T08:01:25.474Z,11.74
2019-05-02T08:02:26.424Z,11.75
2019-05-02T08:03:29.408Z,11.65
2019-05-02T08:04:26.427Z,11.75
2019-05-02T08:05:25.421Z,11.72
2019-05-02T08:06:34.899Z,11.78
2019-05-02T08:07:34.034Z,11.87
2019-05-02T08:08:30.002Z,11.72
2019-05-02T08:09:26.370Z,11.78
2019-05-02T08:10:25.362Z,11.80
2019-05-02T08:11:25.348Z,11.94
2019-05-02T08:12:25.336Z,11.99
2019-05-02T08:13:25.343Z,12.05
2019-05-02T08:14:29.330Z,12.15
2019-05-02T08:15:26.299Z,12.20
2019-05-02T08:16:27.386Z,12.21
2019-05-02T08:17:25.279Z,12.31
2019-05-02T08:18:30.204Z,12.42
2019-05-02T08:19:26.251Z,12.46
2019-05-02T08:20:25.243Z,12.41
2019-05-02T08:21:27.281Z,12.34
2019-05-02T08:22:26.218Z,12.37
2019-05-02T08:23:25.788Z,12.39
2019-05-02T08:24:25.198Z,12.37
2019-05-02T08:25:25.199Z,12.48
2019-05-02T08:26:25.173Z,12.57
2019-05-02T08:27:29.248Z,12.56
2019-05-02T08:28:26.148Z,12.60
2019-05-02T08:29:28.883Z,12.74
2019-05-02T08:30:26.127Z,12.74
2019-05-02T08:31:25.120Z,12.70
2019-05-02T08:32:25.148Z,12.74
2019-05-02T08:33:29.303Z,12.69
2019-05-02T08:34:26.101Z,12.59
2019-05-02T08:35:27.904Z,12.48
2019-05-02T08:36:25.058Z,12.44
2019-05-02T08:37:25.049Z,12.49
2019-05-02T08:38:25.057Z,12.39
2019-05-02T08:39:25.966Z,12.41
2019-05-02T08:40:26.014Z,12.46
2019-05-02T08:41:25.004Z,12.51
2019-05-02T08:42:27.726Z,12.63
2019-05-02T08:43:26.002Z,12.66
2019-05-02T08:44:24.967Z,12.69
2019-05-02T08:45:24.958Z,12.63
2019-05-02T08:46:24.946Z,12.56
2019-05-02T08:47:28.452Z,12.71
2019-05-02T08:48:25.939Z,12.88
2019-05-02T08:49:24.910Z,13.02
2019-05-02T08:50:27.241Z,13.02
2019-05-02T08:51:25.886Z,13.02
2019-05-02T08:52:24.876Z,13.02
2019-05-02T08:53:24.885Z,13.12
2019-05-02T08:54:28.069Z,13.15
2019-05-02T08:55:25.842Z,13.11
2019-05-02T08:56:24.831Z,13.00
2019-05-02T08:57:24.867Z,12.92
2019-05-02T08:58:24.824Z,12.82
2019-05-02T08:59:26.218Z,12.93
2019-05-02T09:00:24.782Z,12.93
2019-05-02T09:01:34.559Z,13.25
2019-05-02T09:02:26.118Z,13.41
2019-05-02T09:03:24.771Z,13.55
2019-05-02T09:04:29.054Z,13.87
2019-05-02T09:05:25.726Z,13.94
2019-05-02T09:06:24.719Z,14.24
2019-05-02T09:07:24.767Z,14.37
2019-05-02T09:08:24.708Z,14.44
2019-05-02T09:09:27.994Z,14.65
2019-05-02T09:10:24.673Z,14.91
2019-05-02T09:11:24.656Z,14.99
2019-05-02T09:12:24.644Z,15.36
2019-05-02T09:13:29.113Z,15.74
2019-05-02T09:14:24.622Z,16.16
2019-05-02T09:15:24.611Z,16.23
2019-05-02T09:16:28.949Z,16.37
2019-05-02T09:17:35.455Z,16.34
2019-05-02T09:18:35.009Z,16.26
2019-05-02T09:19:26.556Z,16.33
2019-05-02T09:20:24.553Z,16.42
2019-05-02T09:21:26.619Z,16.56
2019-05-02T09:22:25.525Z,16.86
2019-05-02T09:23:27.444Z,16.96
2019-05-02T09:24:25.521Z,16.89
2019-05-02T09:25:24.494Z,16.73
2019-05-02T09:26:35.169Z,16.73
2019-05-02T09:27:25.472Z,16.81
2019-05-02T09:28:25.461Z,16.63
2019-05-02T09:29:24.468Z,16.65
2019-05-02T09:30:25.957Z,16.62
2019-05-02T09:31:24.427Z,16.30
2019-05-02T09:32:26.273Z,16.33
2019-05-02T09:33:24.403Z,16.34
2019-05-02T09:34:26.635Z,16.16
2019-05-02T09:35:24.380Z,16.37
2019-05-02T09:36:24.379Z,16.96
2019-05-02T09:37:24.360Z,17.18
2019-05-02T09:38:24.344Z,18.42
2019-05-02T09:39:27.459Z,19.57
2019-05-02T09:40:25.321Z,19.72
2019-05-02T09:41:26.959Z,20.06
2019-05-02T09:42:25.299Z,20.47
2019-05-02T09:43:24.290Z,20.84
2019-05-02T09:44:24.294Z,20.61
2019-05-02T09:45:27.761Z,20.72
2019-05-02T09:46:25.255Z,20.93
2019-05-02T09:47:27.433Z,21.29
2019-05-02T09:48:26.869Z,21.13
2019-05-02T09:49:24.219Z,21.60
2019-05-02T09:50:29.407Z,22.10
2019-05-02T09:51:25.214Z,22.90
2019-05-02T09:52:24.185Z,22.93
2019-05-02T09:53:25.537Z,22.96
2019-05-02T09:54:24.188Z,23.01
2019-05-02T09:55:24.154Z,22.80
2019-05-02T09:56:24.158Z,22.74
2019-05-02T09:57:32.038Z,22.96
2019-05-02T09:58:24.208Z,23.24
2019-05-02T09:59:29.924Z,23.76
2019-05-02T10:00:26.656Z,24.39
2019-05-02T10:01:25.087Z,24.68
2019-05-02T10:02:25.270Z,23.89
2019-05-02T10:03:24.064Z,24.37
2019-05-02T10:04:24.059Z,24.63
2019-05-02T10:05:24.061Z,24.82
2019-05-02T10:06:24.032Z,24.71
2019-05-02T10:07:24.023Z,24.26
2019-05-02T10:08:24.018Z,24.34
2019-05-02T10:09:27.133Z,24.20
2019-05-02T10:10:23.992Z,24.24
2019-05-02T10:11:26.057Z,23.92
2019-05-02T10:12:23.965Z,23.77
2019-05-02T10:13:23.957Z,23.89
2019-05-02T10:14:23.961Z,23.31
2019-05-02T10:15:23.933Z,22.35
2019-05-02T10:16:27.369Z,21.90
2019-05-02T10:17:23.912Z,21.85
2019-05-02T10:18:28.619Z,21.88
2019-05-02T10:19:26.103Z,21.61
2019-05-02T10:20:31.803Z,21.98
2019-05-02T10:21:24.938Z,22.25
2019-05-02T10:22:26.502Z,22.94
2019-05-02T10:23:24.951Z,22.99
2019-05-02T10:24:23.832Z,23.34
2019-05-02T10:25:23.851Z,23.68
2019-05-02T10:26:24.842Z,23.77
2019-05-02T10:27:23.802Z,23.79
2019-05-02T10:28:23.787Z,24.82
2019-05-02T10:29:28.230Z,24.56
2019-05-02T10:30:24.787Z,24.20
2019-05-02T10:31:27.600Z,23.82
2019-05-02T10:32:24.743Z,23.38
2019-05-02T10:33:27.953Z,23.12
2019-05-02T10:34:24.742Z,22.83
2019-05-02T10:35:28.160Z,22.62
2019-05-02T10:36:24.699Z,22.50
2019-05-02T10:37:23.688Z,23.04
2019-05-02T10:38:23.677Z,22.93
2019-05-02T10:39:23.813Z,22.38
2019-05-02T10:40:23.654Z,22.19
2019-05-02T10:41:23.643Z,23.23
2019-05-02T10:42:23.633Z,24.26
2019-05-02T10:43:23.620Z,24.31
2019-05-02T10:44:27.123Z,23.86
2019-05-02T10:45:24.597Z,23.40
2019-05-02T10:46:27.862Z,23.57
2019-05-02T10:47:24.573Z,24.16
2019-05-02T10:48:28.267Z,24.80
2019-05-02T10:49:24.591Z,25.19
2019-05-02T10:50:23.542Z,25.30
2019-05-02T10:51:25.985Z,25.46
2019-05-02T10:52:29.710Z,26.02
2019-05-02T10:53:24.508Z,26.12
2019-05-02T10:54:27.870Z,26.27
2019-05-02T10:55:24.503Z,26.36
2019-05-02T10:56:23.478Z,26.68
2019-05-02T10:57:23.464Z,26.58
2019-05-02T10:58:31.298Z,26.89
2019-05-02T10:59:24.462Z,27.28
2019-05-02T11:00:23.431Z,27.46
2019-05-02T11:01:23.420Z,27.59
2019-05-02T11:02:23.411Z,27.74
2019-05-02T11:03:23.401Z,27.61
2019-05-02T11:04:29.015Z,27.76
2019-05-02T11:05:26.478Z,27.76
2019-05-02T11:06:23.367Z,27.39
2019-05-02T11:07:26.286Z,27.61
2019-05-02T11:08:23.346Z,27.36
2019-05-02T11:09:26.267Z,27.36
2019-05-02T11:10:23.328Z,27.31
2019-05-02T11:11:23.314Z,27.41
2019-05-02T11:12:25.570Z,27.39
2019-05-02T11:13:24.290Z,27.05
2019-05-02T11:14:23.324Z,27.17
2019-05-02T11:15:23.272Z,27.17
2019-05-02T11:16:23.262Z,27.11
2019-05-02T11:17:23.248Z,27.32
2019-05-02T11:18:38.831Z,27.53
2019-05-02T11:19:24.285Z,27.92
2019-05-02T11:20:23.218Z,27.85
2019-05-02T11:21:23.206Z,28.29
2019-05-02T11:22:23.195Z,28.69
2019-05-02T11:23:23.206Z,28.82
2019-05-02T11:24:23.176Z,29.23
2019-05-02T11:25:23.181Z,28.90
2019-05-02T11:26:24.999Z,29.01
2019-05-02T11:27:23.143Z,28.88
2019-05-02T11:28:23.133Z,29.19
2019-05-02T11:29:23.123Z,27.89
2019-05-02T11:30:26.504Z,26.59
2019-05-02T11:31:23.100Z,25.56
2019-05-02T11:32:23.103Z,26.15
2019-05-02T11:33:23.076Z,26.31
2019-05-02T11:34:23.068Z,27.06
2019-05-02T11:35:23.077Z,27.06
2019-05-02T11:36:23.043Z,25.97
2019-05-02T11:37:23.033Z,25.77
2019-05-02T11:38:48.028Z,26.05
2019-05-02T11:39:31.688Z,26.55
2019-05-02T11:40:24.021Z,26.29
2019-05-02T11:41:22.990Z,26.24
2019-05-02T11:42:27.118Z,26.15
2019-05-02T11:43:22.969Z,25.94
2019-05-02T11:44:22.956Z,25.50
2019-05-02T11:45:22.964Z,25.62
2019-05-02T11:46:22.938Z,25.65
2019-05-02T11:47:26.490Z,26.02
2019-05-02T11:48:22.914Z,25.43
2019-05-02T11:49:22.954Z,24.77
2019-05-02T11:50:26.626Z,24.53
2019-05-02T11:51:23.879Z,23.82
2019-05-02T11:52:27.269Z,23.90
2019-05-02T11:53:28.883Z,24.67
2019-05-02T11:54:23.845Z,25.35
2019-05-02T11:55:24.719Z,25.71
2019-05-02T11:56:23.823Z,24.85
2019-05-02T11:57:28.389Z,24.17
2019-05-02T11:58:23.802Z,23.82
2019-05-02T11:59:28.158Z,23.61
2019-05-02T12:00:23.801Z,24.26
2019-05-02T12:01:35.601Z,24.04
2019-05-02T12:02:23.757Z,23.46
2019-05-02T12:03:22.748Z,23.38
2019-05-02T12:04:22.736Z,23.34
2019-05-02T12:05:26.524Z,23.07
2019-05-02T12:06:23.733Z,22.93
2019-05-02T12:07:23.183Z,23.49
2019-05-02T12:08:22.772Z,24.20
2019-05-02T12:09:22.680Z,24.63
2019-05-02T12:10:22.668Z,25.25
2019-05-02T12:11:23.118Z,25.54
2019-05-02T12:12:22.776Z,24.92
2019-05-02T12:13:22.795Z,24.64
2019-05-02T12:14:23.005Z,23.70
2019-05-02T12:15:22.614Z,23.20
2019-05-02T12:16:23.151Z,23.85
2019-05-02T12:17:22.592Z,24.19
2019-05-02T12:18:23.400Z,24.64
2019-05-02T12:19:22.937Z,25.22
2019-05-02T12:20:22.865Z,25.64
2019-05-02T12:21:22.998Z,25.91
2019-05-02T12:22:22.694Z,25.91
2019-05-02T12:23:22.758Z,25.82
2019-05-02T12:24:22.512Z,26.08
2019-05-02T12:25:22.503Z,26.32
2019-05-02T12:26:22.490Z,26.67
2019-05-02T12:27:22.497Z,26.74
2019-05-02T12:28:22.978Z,26.77
2019-05-02T12:29:22.457Z,26.43
2019-05-02T12:30:22.938Z,26.29
2019-05-02T12:31:22.446Z,25.67
2019-05-02T12:32:22.594Z,25.61
2019-05-02T12:33:22.446Z,25.52
2019-05-02T12:34:22.403Z,25.72
2019-05-02T12:35:22.493Z,25.49
2019-05-02T12:36:22.774Z,24.75
2019-05-02T12:37:22.389Z,24.50
2019-05-02T12:38:23.045Z,24.14
2019-05-02T12:39:22.349Z,23.57
2019-05-02T12:40:22.338Z,23.68
2019-05-02T12:41:25.041Z,23.62
2019-05-02T12:42:23.888Z,24.34
2019-05-02T12:43:22.995Z,24.19
2019-05-02T12:44:22.416Z,24.10
2019-05-02T12:45:22.285Z,24.54
2019-05-02T12:46:22.374Z,24.95
2019-05-02T12:47:22.606Z,25.24
2019-05-02T12:48:22.250Z,25.37
2019-05-02T12:49:27.494Z,25.17
2019-05-02T12:50:23.240Z,25.20
2019-05-02T12:51:22.663Z,24.98
2019-05-02T12:52:22.639Z,24.94
2019-05-02T12:53:22.193Z,24.83
2019-05-02T12:54:22.182Z,24.75
2019-05-02T12:55:22.236Z,24.69
2019-05-02T12:56:22.955Z,24.45
2019-05-02T12:57:22.170Z,24.71
2019-05-02T12:58:22.137Z,24.31
2019-05-02T12:59:22.623Z,24.04
2019-05-02T13:00:22.364Z,24.02
2019-05-02T13:01:22.306Z,23.76
2019-05-02T13:02:22.093Z,24.24
2019-05-02T13:03:22.205Z,24.83
2019-05-02T13:04:22.963Z,25.10
2019-05-02T13:05:22.313Z,25.47
2019-05-02T13:06:22.145Z,25.39